sensor_id;sensor_type;location;lat;lon;timestamp;pressure;altitude;pressure_sealevel;temperature;humidity
24588;BME280;12744;52.270;9.746;2022-08-19T00:01:58;107494.88;;;20.18;nan
24588;BME280;12744;52.270;9.746;2022-08-19T00:04:32;107548.84;;;20.20;nan
24588;BME280;12744;52.270;9.746;2022-08-19T00:07:07;107605.31;;;20.26;nan
24588;BME280;12744;52.270;9.746;2022-08-19T00:09:38;107658.13;;;20.31;nan
24588;BME280;12744;52.270;9.746;2022-08-19T00:12:09;107678.13;;;20.33;nan
24588;BME280;12744;52.270;9.746;2022-08-19T00:14:41;107676.81;;;20.27;nan
24588;BME280;12744;52.270;9.746;2022-08-19T00:17:12;107699.03;;;20.26;nan
24588;BME280;12744;52.270;9.746;2022-08-19T00:19:43;107693.66;;;20.15;nan
24588;BME280;12744;52.270;9.746;2022-08-19T00:22:14;107716.56;;;20.15;nan
24588;BME280;12744;52.270;9.746;2022-08-19T00:24:46;107707.75;;;20.02;nan
24588;BME280;12744;52.270;9.746;2022-08-19T00:27:17;107736.31;;;20.01;nan
24588;BME280;12744;52.270;9.746;2022-08-19T00:29:48;107698.03;;;19.79;nan
24588;BME280;12744;52.270;9.746;2022-08-19T00:32:20;107775.78;;;19.92;nan
24588;BME280;12744;52.270;9.746;2022-08-19T00:34:52;107797.81;;;19.92;nan
24588;BME280;12744;52.270;9.746;2022-08-19T00:37:24;107802.44;;;19.92;nan
24588;BME280;12744;52.270;9.746;2022-08-19T00:39:56;107817.56;;;19.97;nan
24588;BME280;12744;52.270;9.746;2022-08-19T00:42:27;107814.78;;;19.97;nan
24588;BME280;12744;52.270;9.746;2022-08-19T00:44:59;107787.22;;;19.88;nan
24588;BME280;12744;52.270;9.746;2022-08-19T00:47:30;107801.00;;;19.88;nan
24588;BME280;12744;52.270;9.746;2022-08-19T00:50:02;107754.28;;;19.67;nan
24588;BME280;12744;52.270;9.746;2022-08-19T00:52:37;107763.84;;;19.63;nan
24588;BME280;12744;52.270;9.746;2022-08-19T00:55:09;107792.84;;;19.67;nan
24588;BME280;12744;52.270;9.746;2022-08-19T00:57:48;107783.50;;;19.49;nan
24588;BME280;12744;52.270;9.746;2022-08-19T01:00:22;107831.06;;;19.51;nan
24588;BME280;12744;52.270;9.746;2022-08-19T01:02:53;107834.94;;;19.39;nan
24588;BME280;12744;52.270;9.746;2022-08-19T01:05:27;107876.97;;;19.41;nan
24588;BME280;12744;52.270;9.746;2022-08-19T01:08:02;107956.19;;;19.58;nan
24588;BME280;12744;52.270;9.746;2022-08-19T01:10:37;107932.75;;;19.43;nan
24588;BME280;12744;52.270;9.746;2022-08-19T01:13:10;107953.91;;;19.42;nan
24588;BME280;12744;52.270;9.746;2022-08-19T01:15:46;107994.06;;;19.45;nan
24588;BME280;12744;52.270;9.746;2022-08-19T01:18:20;108024.84;;;19.50;nan
24588;BME280;12744;52.270;9.746;2022-08-19T01:20:54;108034.72;;;19.52;nan
24588;BME280;12744;52.270;9.746;2022-08-19T01:23:27;108101.56;;;19.75;nan
24588;BME280;12744;52.270;9.746;2022-08-19T01:26:19;108083.72;;;19.79;nan
24588;BME280;12744;52.270;9.746;2022-08-19T01:28:53;108089.91;;;19.92;nan
24588;BME280;12744;52.270;9.746;2022-08-19T01:31:27;108047.09;;;19.88;nan
24588;BME280;12744;52.270;9.746;2022-08-19T01:34:01;108062.97;;;20.05;nan
24588;BME280;12744;52.270;9.746;2022-08-19T01:36:44;108029.91;;;20.05;nan
24588;BME280;12744;52.270;9.746;2022-08-19T01:39:23;107959.09;;;19.96;nan
24588;BME280;12744;52.270;9.746;2022-08-19T01:41:54;107876.66;;;19.74;nan
24588;BME280;12744;52.270;9.746;2022-08-19T01:44:26;107871.88;;;19.76;nan
24588;BME280;12744;52.270;9.746;2022-08-19T01:46:57;107843.28;;;19.67;nan
24588;BME280;12744;52.270;9.746;2022-08-19T01:49:28;107863.16;;;19.71;nan
24588;BME280;12744;52.270;9.746;2022-08-19T01:51:59;107859.94;;;19.66;nan
24588;BME280;12744;52.270;9.746;2022-08-19T01:54:31;107871.41;;;19.71;nan
24588;BME280;12744;52.270;9.746;2022-08-19T01:57:08;107864.91;;;19.72;nan
24588;BME280;12744;52.270;9.746;2022-08-19T01:59:42;107860.13;;;19.74;nan
24588;BME280;12744;52.270;9.746;2022-08-19T02:02:14;107880.47;;;19.83;nan
24588;BME280;12744;52.270;9.746;2022-08-19T02:04:46;107895.53;;;19.88;nan
24588;BME280;12744;52.270;9.746;2022-08-19T02:07:19;107897.03;;;19.92;nan
24588;BME280;12744;52.270;9.746;2022-08-19T02:09:52;107890.34;;;19.95;nan
24588;BME280;12744;52.270;9.746;2022-08-19T02:12:23;107869.91;;;19.97;nan
24588;BME280;12744;52.270;9.746;2022-08-19T02:14:54;107803.31;;;19.73;nan
24588;BME280;12744;52.270;9.746;2022-08-19T02:17:25;107818.94;;;19.63;nan
24588;BME280;12744;52.270;9.746;2022-08-19T02:19:56;107854.44;;;19.66;nan
24588;BME280;12744;52.270;9.746;2022-08-19T02:22:27;107847.03;;;19.57;nan
24588;BME280;12744;52.270;9.746;2022-08-19T02:24:58;107857.28;;;19.45;nan
24588;BME280;12744;52.270;9.746;2022-08-19T02:27:29;107868.28;;;19.25;nan
24588;BME280;12744;52.270;9.746;2022-08-19T02:30:04;107903.97;;;19.06;nan
24588;BME280;12744;52.270;9.746;2022-08-19T02:32:36;107954.56;;;18.93;nan
24588;BME280;12744;52.270;9.746;2022-08-19T02:35:09;107993.38;;;18.79;nan
24588;BME280;12744;52.270;9.746;2022-08-19T02:37:41;108102.16;;;18.83;nan
24588;BME280;12744;52.270;9.746;2022-08-19T02:40:32;108174.41;;;18.85;nan
24588;BME280;12744;52.270;9.746;2022-08-19T02:43:08;108243.47;;;18.82;nan
24588;BME280;12744;52.270;9.746;2022-08-19T02:45:39;108321.34;;;18.83;nan
24588;BME280;12744;52.270;9.746;2022-08-19T02:48:11;108369.75;;;18.74;nan
24588;BME280;12744;52.270;9.746;2022-08-19T02:50:42;108443.03;;;18.75;nan
24588;BME280;12744;52.270;9.746;2022-08-19T02:53:14;108561.13;;;18.89;nan
24588;BME280;12744;52.270;9.746;2022-08-19T02:55:46;108607.25;;;18.86;nan
24588;BME280;12744;52.270;9.746;2022-08-19T02:58:18;108716.72;;;19.06;nan
24588;BME280;12744;52.270;9.746;2022-08-19T03:00:55;108809.56;;;19.28;nan
24588;BME280;12744;52.270;9.746;2022-08-19T03:03:27;108851.66;;;19.42;nan
24588;BME280;12744;52.270;9.746;2022-08-19T03:06:07;108844.81;;;19.48;nan
24588;BME280;12744;52.270;9.746;2022-08-19T03:08:42;108753.66;;;19.15;nan
24588;BME280;12744;52.270;9.746;2022-08-19T03:11:18;108787.22;;;19.20;nan
24588;BME280;12744;52.270;9.746;2022-08-19T03:13:50;108840.63;;;19.30;nan
24588;BME280;12744;52.270;9.746;2022-08-19T03:16:23;108887.34;;;19.44;nan
24588;BME280;12744;52.270;9.746;2022-08-19T03:18:56;108846.91;;;19.32;nan
24588;BME280;12744;52.270;9.746;2022-08-19T03:21:32;108893.63;;;19.46;nan
24588;BME280;12744;52.270;9.746;2022-08-19T03:24:06;108869.72;;;19.34;nan
24588;BME280;12744;52.270;9.746;2022-08-19T03:26:40;108876.41;;;19.30;nan
24588;BME280;12744;52.270;9.746;2022-08-19T03:29:12;108896.19;;;19.36;nan
24588;BME280;12744;52.270;9.746;2022-08-19T03:31:44;108927.66;;;19.45;nan
24588;BME280;12744;52.270;9.746;2022-08-19T03:34:19;108933.06;;;19.46;nan
24588;BME280;12744;52.270;9.746;2022-08-19T03:36:51;108916.66;;;19.45;nan
24588;BME280;12744;52.270;9.746;2022-08-19T03:39:23;108911.13;;;19.45;nan
24588;BME280;12744;52.270;9.746;2022-08-19T03:41:55;108901.34;;;19.41;nan
24588;BME280;12744;52.270;9.746;2022-08-19T03:44:33;108872.81;;;19.29;nan
24588;BME280;12744;52.270;9.746;2022-08-19T03:47:04;108880.41;;;19.26;nan
24588;BME280;12744;52.270;9.746;2022-08-19T03:49:35;108952.78;;;19.40;nan
24588;BME280;12744;52.270;9.746;2022-08-19T03:52:07;108912.69;;;19.24;nan
24588;BME280;12744;52.270;9.746;2022-08-19T03:54:38;108940.84;;;19.27;nan
24588;BME280;12744;52.270;9.746;2022-08-19T03:57:09;108893.75;;;19.07;nan
24588;BME280;12744;52.270;9.746;2022-08-19T03:59:41;108907.19;;;18.98;nan
24588;BME280;12744;52.270;9.746;2022-08-19T04:02:13;108929.66;;;18.92;nan
24588;BME280;12744;52.270;9.746;2022-08-19T04:04:44;108957.47;;;18.88;nan
24588;BME280;12744;52.270;9.746;2022-08-19T04:07:15;108969.03;;;18.80;nan
24588;BME280;12744;52.270;9.746;2022-08-19T04:09:47;109026.38;;;18.86;nan
24588;BME280;12744;52.270;9.746;2022-08-19T04:12:18;109049.59;;;18.82;nan
24588;BME280;12744;52.270;9.746;2022-08-19T04:14:51;109038.75;;;18.67;nan
24588;BME280;12744;52.270;9.746;2022-08-19T04:17:22;109053.16;;;18.58;nan
24588;BME280;12744;52.270;9.746;2022-08-19T04:19:53;109057.19;;;18.52;nan
24588;BME280;12744;52.270;9.746;2022-08-19T04:22:24;109074.13;;;18.46;nan
24588;BME280;12744;52.270;9.746;2022-08-19T04:24:55;109105.16;;;18.48;nan
24588;BME280;12744;52.270;9.746;2022-08-19T04:27:26;109132.09;;;18.42;nan
24588;BME280;12744;52.270;9.746;2022-08-19T04:29:57;109161.56;;;18.39;nan
24588;BME280;12744;52.270;9.746;2022-08-19T04:32:28;109226.44;;;18.58;nan
24588;BME280;12744;52.270;9.746;2022-08-19T04:34:59;109212.47;;;18.47;nan
24588;BME280;12744;52.270;9.746;2022-08-19T04:37:30;109202.34;;;18.33;nan
24588;BME280;12744;52.270;9.746;2022-08-19T04:40:05;109226.38;;;18.29;nan
24588;BME280;12744;52.270;9.746;2022-08-19T04:42:55;109240.44;;;18.25;nan
24588;BME280;12744;52.270;9.746;2022-08-19T04:45:27;109314.91;;;18.36;nan
24588;BME280;12744;52.270;9.746;2022-08-19T04:47:58;109368.81;;;18.38;nan
24588;BME280;12744;52.270;9.746;2022-08-19T04:50:29;109377.53;;;18.31;nan
24588;BME280;12744;52.270;9.746;2022-08-19T04:53:00;109412.28;;;18.32;nan
24588;BME280;12744;52.270;9.746;2022-08-19T04:55:31;109422.59;;;18.28;nan
24588;BME280;12744;52.270;9.746;2022-08-19T04:58:02;109452.84;;;18.28;nan
24588;BME280;12744;52.270;9.746;2022-08-19T05:00:33;109466.88;;;18.24;nan
24588;BME280;12744;52.270;9.746;2022-08-19T05:03:04;109541.25;;;18.36;nan
24588;BME280;12744;52.270;9.746;2022-08-19T05:05:40;109557.97;;;18.33;nan
24588;BME280;12744;52.270;9.746;2022-08-19T05:08:13;109607.47;;;18.49;nan
24588;BME280;12744;52.270;9.746;2022-08-19T05:10:50;109613.16;;;18.46;nan
24588;BME280;12744;52.270;9.746;2022-08-19T05:13:22;109626.06;;;18.44;nan
24588;BME280;12744;52.270;9.746;2022-08-19T05:15:58;109617.19;;;18.39;nan
24588;BME280;12744;52.270;9.746;2022-08-19T05:18:29;109604.97;;;18.29;nan
24588;BME280;12744;52.270;9.746;2022-08-19T05:21:19;109639.56;;;18.33;nan
24588;BME280;12744;52.270;9.746;2022-08-19T05:24:10;109676.84;;;18.38;nan
24588;BME280;12744;52.270;9.746;2022-08-19T05:26:44;109696.94;;;18.39;nan
24588;BME280;12744;52.270;9.746;2022-08-19T05:29:20;109721.78;;;18.37;nan
24588;BME280;12744;52.270;9.746;2022-08-19T05:31:52;109708.91;;;18.55;nan
24588;BME280;12744;52.270;9.746;2022-08-19T05:34:24;109713.13;;;18.45;nan
24588;BME280;12744;52.270;9.746;2022-08-19T05:36:57;109706.09;;;18.39;nan
24588;BME280;12744;52.270;9.746;2022-08-19T05:39:33;109726.88;;;18.45;nan
24588;BME280;12744;52.270;9.746;2022-08-19T05:42:07;109740.56;;;18.47;nan
24588;BME280;12744;52.270;9.746;2022-08-19T05:44:41;109752.44;;;18.47;nan
24588;BME280;12744;52.270;9.746;2022-08-19T05:47:16;109802.28;;;18.58;nan
24588;BME280;12744;52.270;9.746;2022-08-19T05:49:50;109811.16;;;18.63;nan
24588;BME280;12744;52.270;9.746;2022-08-19T05:52:21;109829.09;;;18.70;nan
24588;BME280;12744;52.270;9.746;2022-08-19T05:54:53;109826.34;;;18.70;nan
24588;BME280;12744;52.270;9.746;2022-08-19T05:57:25;109814.88;;;18.62;nan
24588;BME280;12744;52.270;9.746;2022-08-19T05:59:59;109783.34;;;18.52;nan
24588;BME280;12744;52.270;9.746;2022-08-19T06:02:42;109758.28;;;18.41;nan
24588;BME280;12744;52.270;9.746;2022-08-19T06:05:13;109812.97;;;18.47;nan
24588;BME280;12744;52.270;9.746;2022-08-19T06:07:44;109867.31;;;18.59;nan
24588;BME280;12744;52.270;9.746;2022-08-19T06:10:16;109878.16;;;18.62;nan
24588;BME280;12744;52.270;9.746;2022-08-19T06:12:48;109868.47;;;18.55;nan
24588;BME280;12744;52.270;9.746;2022-08-19T06:15:19;109900.16;;;18.62;nan
24588;BME280;12744;52.270;9.746;2022-08-19T06:17:50;109895.88;;;18.57;nan
24588;BME280;12744;52.270;9.746;2022-08-19T06:20:22;109929.63;;;18.60;nan
24588;BME280;12744;52.270;9.746;2022-08-19T06:22:54;109919.84;;;18.55;nan
24588;BME280;12744;52.270;9.746;2022-08-19T06:25:25;109964.41;;;18.61;nan
24588;BME280;12744;52.270;9.746;2022-08-19T06:27:56;110004.38;;;18.68;nan
24588;BME280;12744;52.270;9.746;2022-08-19T06:30:27;109957.63;;;18.51;nan
24588;BME280;12744;52.270;9.746;2022-08-19T06:32:58;110016.38;;;18.67;nan
24588;BME280;12744;52.270;9.746;2022-08-19T06:35:29;110012.88;;;18.64;nan
24588;BME280;12744;52.270;9.746;2022-08-19T06:38:00;110013.88;;;18.63;nan
24588;BME280;12744;52.270;9.746;2022-08-19T06:40:31;110012.34;;;18.57;nan
24588;BME280;12744;52.270;9.746;2022-08-19T06:43:02;110081.13;;;18.74;nan
24588;BME280;12744;52.270;9.746;2022-08-19T06:45:33;110123.38;;;18.90;nan
24588;BME280;12744;52.270;9.746;2022-08-19T06:48:07;110071.56;;;18.81;nan
24588;BME280;12744;52.270;9.746;2022-08-19T06:50:38;110142.00;;;19.02;nan
24588;BME280;12744;52.270;9.746;2022-08-19T06:53:09;110103.81;;;18.96;nan
24588;BME280;12744;52.270;9.746;2022-08-19T06:55:40;110143.97;;;19.18;nan
24588;BME280;12744;52.270;9.746;2022-08-19T06:58:11;110147.97;;;19.29;nan
24588;BME280;12744;52.270;9.746;2022-08-19T07:00:42;110132.66;;;19.41;nan
24588;BME280;12744;52.270;9.746;2022-08-19T07:03:14;110110.34;;;19.45;nan
24588;BME280;12744;52.270;9.746;2022-08-19T07:05:45;110125.91;;;19.63;nan
24588;BME280;12744;52.270;9.746;2022-08-19T07:08:16;110088.81;;;19.69;nan
24588;BME280;12744;52.270;9.746;2022-08-19T07:10:47;110204.28;;;20.23;nan
24588;BME280;12744;52.270;9.746;2022-08-19T07:13:20;110147.16;;;20.25;nan
24588;BME280;12744;52.270;9.746;2022-08-19T07:15:52;110076.56;;;20.21;nan
24588;BME280;12744;52.270;9.746;2022-08-19T07:18:23;110245.22;;;20.93;nan
24588;BME280;12744;52.270;9.746;2022-08-19T07:21:03;110206.41;;;21.12;nan
24588;BME280;12744;52.270;9.746;2022-08-19T07:23:35;110097.56;;;21.15;nan
24588;BME280;12744;52.270;9.746;2022-08-19T07:26:08;109958.72;;;21.11;nan
24588;BME280;12744;52.270;9.746;2022-08-19T07:28:40;109725.03;;;20.68;nan
24588;BME280;12744;52.270;9.746;2022-08-19T07:31:17;109758.50;;;20.90;nan
24588;BME280;12744;52.270;9.746;2022-08-19T07:33:53;109663.59;;;20.78;nan
24588;BME280;12744;52.270;9.746;2022-08-19T07:36:27;109553.69;;;20.71;nan
24588;BME280;12744;52.270;9.746;2022-08-19T07:39:06;109504.97;;;20.70;nan
24588;BME280;12744;52.270;9.746;2022-08-19T07:41:38;109463.69;;;20.81;nan
24588;BME280;12744;52.270;9.746;2022-08-19T07:44:10;109447.94;;;21.08;nan
24588;BME280;12744;52.270;9.746;2022-08-19T07:46:44;109310.84;;;21.07;nan
24588;BME280;12744;52.270;9.746;2022-08-19T07:49:16;109130.25;;;20.97;nan
24588;BME280;12744;52.270;9.746;2022-08-19T07:51:54;109070.72;;;21.17;nan
24588;BME280;12744;52.270;9.746;2022-08-19T07:54:28;109016.38;;;21.28;nan
24588;BME280;12744;52.270;9.746;2022-08-19T07:57:00;109000.47;;;21.76;nan
24588;BME280;12744;52.270;9.746;2022-08-19T07:59:31;108877.59;;;22.01;nan
24588;BME280;12744;52.270;9.746;2022-08-19T08:02:03;108624.09;;;21.81;nan
24588;BME280;12744;52.270;9.746;2022-08-19T08:04:35;108473.53;;;21.85;nan
24588;BME280;12744;52.270;9.746;2022-08-19T08:07:24;108314.66;;;22.08;nan
24588;BME280;12744;52.270;9.746;2022-08-19T08:10:14;107983.41;;;21.65;nan
24588;BME280;12744;52.270;9.746;2022-08-19T08:12:45;107865.97;;;21.79;nan
24588;BME280;12744;52.270;9.746;2022-08-19T08:15:16;107728.94;;;21.86;nan
24588;BME280;12744;52.270;9.746;2022-08-19T08:17:49;107610.78;;;21.88;nan
24588;BME280;12744;52.270;9.746;2022-08-19T08:20:20;107628.41;;;22.46;nan
24588;BME280;12744;52.270;9.746;2022-08-19T08:22:51;107403.34;;;22.79;nan
24588;BME280;12744;52.270;9.746;2022-08-19T08:25:41;107105.75;;;22.45;nan
24588;BME280;12744;52.270;9.746;2022-08-19T08:28:12;106877.63;;;22.33;nan
24588;BME280;12744;52.270;9.746;2022-08-19T08:30:43;106686.34;;;22.06;nan
24588;BME280;12744;52.270;9.746;2022-08-19T08:33:21;106703.09;;;22.13;nan
24588;BME280;12744;52.270;9.746;2022-08-19T08:35:53;106582.69;;;22.10;nan
24588;BME280;12744;52.270;9.746;2022-08-19T08:38:24;106463.25;;;21.86;nan
24588;BME280;12744;52.270;9.746;2022-08-19T08:41:00;106313.16;;;21.85;nan
24588;BME280;12744;52.270;9.746;2022-08-19T08:43:39;106287.16;;;22.15;nan
24588;BME280;12744;52.270;9.746;2022-08-19T08:46:26;106132.84;;;22.19;nan
24588;BME280;12744;52.270;9.746;2022-08-19T08:51:55;105636.56;;;21.97;nan
24588;BME280;12744;52.270;9.746;2022-08-19T08:54:40;105616.63;;;22.28;nan
24588;BME280;12744;52.270;9.746;2022-08-19T08:57:25;105553.06;;;22.14;nan
24588;BME280;12744;52.270;9.746;2022-08-19T08:59:57;105512.78;;;22.64;nan
24588;BME280;12744;52.270;9.746;2022-08-19T09:02:31;105424.00;;;23.17;nan
24588;BME280;12744;52.270;9.746;2022-08-19T09:05:03;105318.19;;;23.64;nan
24588;BME280;12744;52.270;9.746;2022-08-19T09:10:44;104753.06;;;23.59;nan
24588;BME280;12744;52.270;9.746;2022-08-19T09:13:31;104587.41;;;24.46;nan
24588;BME280;12744;52.270;9.746;2022-08-19T09:16:11;104280.97;;;24.43;nan
24588;BME280;12744;52.270;9.746;2022-08-19T09:18:45;104067.00;;;25.40;nan
24588;BME280;12744;52.270;9.746;2022-08-19T09:21:18;103660.88;;;24.79;nan
24588;BME280;12744;52.270;9.746;2022-08-19T09:23:49;103371.25;;;24.85;nan
24588;BME280;12744;52.270;9.746;2022-08-19T09:26:22;103270.19;;;25.01;nan
24588;BME280;12744;52.270;9.746;2022-08-19T09:28:54;103226.69;;;25.30;nan
24588;BME280;12744;52.270;9.746;2022-08-19T09:31:27;103197.66;;;25.99;nan
24588;BME280;12744;52.270;9.746;2022-08-19T09:33:58;102980.53;;;26.24;nan
24588;BME280;12744;52.270;9.746;2022-08-19T09:36:30;102726.72;;;25.69;nan
24588;BME280;12744;52.270;9.746;2022-08-19T09:39:06;102646.19;;;25.23;nan
24588;BME280;12744;52.270;9.746;2022-08-19T09:41:37;102567.34;;;25.24;nan
24588;BME280;12744;52.270;9.746;2022-08-19T09:44:08;102471.88;;;24.98;nan
24588;BME280;12744;52.270;9.746;2022-08-19T09:46:41;102439.31;;;25.04;nan
24588;BME280;12744;52.270;9.746;2022-08-19T09:49:12;102313.88;;;26.09;nan
24588;BME280;12744;52.270;9.746;2022-08-19T09:51:44;102090.06;;;26.42;nan
24588;BME280;12744;52.270;9.746;2022-08-19T09:54:16;101997.50;;;26.50;nan
24588;BME280;12744;52.270;9.746;2022-08-19T09:56:48;101777.63;;;27.02;nan
24588;BME280;12744;52.270;9.746;2022-08-19T09:59:19;101554.09;;;26.65;nan
24588;BME280;12744;52.270;9.746;2022-08-19T10:01:51;101514.41;;;25.85;nan
24588;BME280;12744;52.270;9.746;2022-08-19T10:04:22;101470.56;;;26.94;nan
24588;BME280;12744;52.270;9.746;2022-08-19T10:06:55;101331.72;;;26.89;nan
24588;BME280;12744;52.270;9.746;2022-08-19T10:09:26;101215.94;;;26.36;nan
24588;BME280;12744;52.270;9.746;2022-08-19T10:11:57;101338.28;;;26.72;nan
24588;BME280;12744;52.270;9.746;2022-08-19T10:14:32;101105.00;;;26.31;nan
24588;BME280;12744;52.270;9.746;2022-08-19T10:17:03;101011.91;;;26.49;nan
24588;BME280;12744;52.270;9.746;2022-08-19T10:19:34;100909.41;;;26.76;nan
24588;BME280;12744;52.270;9.746;2022-08-19T10:22:06;100862.53;;;27.90;nan
24588;BME280;12744;52.270;9.746;2022-08-19T10:24:37;100789.97;;;27.29;nan
24588;BME280;12744;52.270;9.746;2022-08-19T10:27:08;100766.78;;;26.28;nan
24588;BME280;12744;52.270;9.746;2022-08-19T10:29:40;100839.09;;;26.91;nan
24588;BME280;12744;52.270;9.746;2022-08-19T10:32:12;100751.91;;;26.99;nan
24588;BME280;12744;52.270;9.746;2022-08-19T10:34:43;100637.34;;;26.93;nan
24588;BME280;12744;52.270;9.746;2022-08-19T10:37:14;100666.38;;;26.77;nan
24588;BME280;12744;52.270;9.746;2022-08-19T10:39:46;100508.38;;;27.20;nan
24588;BME280;12744;52.270;9.746;2022-08-19T10:42:21;100495.72;;;26.65;nan
24588;BME280;12744;52.270;9.746;2022-08-19T10:44:52;100518.47;;;26.87;nan
24588;BME280;12744;52.270;9.746;2022-08-19T10:47:23;100553.53;;;27.52;nan
24588;BME280;12744;52.270;9.746;2022-08-19T10:49:55;100372.31;;;27.87;nan
24588;BME280;12744;52.270;9.746;2022-08-19T10:52:49;100453.91;;;27.87;nan
24588;BME280;12744;52.270;9.746;2022-08-19T10:55:22;100358.97;;;27.21;nan
24588;BME280;12744;52.270;9.746;2022-08-19T10:58:14;100503.53;;;28.60;nan
24588;BME280;12744;52.270;9.746;2022-08-19T11:00:52;100333.59;;;28.05;nan
24588;BME280;12744;52.270;9.746;2022-08-19T11:03:25;100219.41;;;28.92;nan
24588;BME280;12744;52.270;9.746;2022-08-19T11:06:08;100263.94;;;28.82;nan
24588;BME280;12744;52.270;9.746;2022-08-19T11:08:39;100013.03;;;29.06;nan
24588;BME280;12744;52.270;9.746;2022-08-19T11:11:12;99976.13;;;28.48;nan
24588;BME280;12744;52.270;9.746;2022-08-19T11:13:43;99930.09;;;28.82;nan
24588;BME280;12744;52.270;9.746;2022-08-19T11:16:19;99997.06;;;28.96;nan
24588;BME280;12744;52.270;9.746;2022-08-19T11:18:54;99909.38;;;28.80;nan
24588;BME280;12744;52.270;9.746;2022-08-19T11:21:32;99866.38;;;29.16;nan
24588;BME280;12744;52.270;9.746;2022-08-19T11:24:10;99765.97;;;28.63;nan
24588;BME280;12744;52.270;9.746;2022-08-19T11:26:44;99865.63;;;29.22;nan
24588;BME280;12744;52.270;9.746;2022-08-19T11:29:15;99713.56;;;29.76;nan
24588;BME280;12744;52.270;9.746;2022-08-19T11:31:48;99755.06;;;29.85;nan
24588;BME280;12744;52.270;9.746;2022-08-19T11:34:22;99760.75;;;28.58;nan
24588;BME280;12744;52.270;9.746;2022-08-19T11:36:54;99730.69;;;27.88;nan
24588;BME280;12744;52.270;9.746;2022-08-19T11:39:30;99920.63;;;28.18;nan
24588;BME280;12744;52.270;9.746;2022-08-19T11:42:02;99868.13;;;28.27;nan
24588;BME280;12744;52.270;9.746;2022-08-19T11:44:53;99763.44;;;28.12;nan
24588;BME280;12744;52.270;9.746;2022-08-19T11:47:24;99721.94;;;27.86;nan
24588;BME280;12744;52.270;9.746;2022-08-19T11:49:56;99797.84;;;28.73;nan
24588;BME280;12744;52.270;9.746;2022-08-19T11:52:27;99691.81;;;29.08;nan
24588;BME280;12744;52.270;9.746;2022-08-19T11:55:00;99632.00;;;29.30;nan
24588;BME280;12744;52.270;9.746;2022-08-19T11:57:31;99561.16;;;28.96;nan
24588;BME280;12744;52.270;9.746;2022-08-19T12:00:03;99560.34;;;29.06;nan
24588;BME280;12744;52.270;9.746;2022-08-19T12:02:36;99521.47;;;28.60;nan
24588;BME280;12744;52.270;9.746;2022-08-19T12:05:08;99504.75;;;30.02;nan
24588;BME280;12744;52.270;9.746;2022-08-19T12:07:39;99378.84;;;29.82;nan
24588;BME280;12744;52.270;9.746;2022-08-19T12:10:14;99444.28;;;30.22;nan
24588;BME280;12744;52.270;9.746;2022-08-19T12:12:46;99234.97;;;29.29;nan
24588;BME280;12744;52.270;9.746;2022-08-19T12:15:17;99329.84;;;30.11;nan
24588;BME280;12744;52.270;9.746;2022-08-19T12:17:48;99310.56;;;30.20;nan
24588;BME280;12744;52.270;9.746;2022-08-19T12:20:20;99291.03;;;30.50;nan
24588;BME280;12744;52.270;9.746;2022-08-19T12:22:51;99305.16;;;31.20;nan
24588;BME280;12744;52.270;9.746;2022-08-19T12:25:22;99222.88;;;30.68;nan
24588;BME280;12744;52.270;9.746;2022-08-19T12:27:53;99283.22;;;30.92;nan
24588;BME280;12744;52.270;9.746;2022-08-19T12:30:26;99301.66;;;30.89;nan
24588;BME280;12744;52.270;9.746;2022-08-19T12:32:57;99311.34;;;31.31;nan
24588;BME280;12744;52.270;9.746;2022-08-19T12:35:28;99229.41;;;31.73;nan
24588;BME280;12744;52.270;9.746;2022-08-19T12:37:59;99140.59;;;31.11;nan
24588;BME280;12744;52.270;9.746;2022-08-19T12:40:32;99190.84;;;31.61;nan
24588;BME280;12744;52.270;9.746;2022-08-19T12:43:03;99064.38;;;31.43;nan
24588;BME280;12744;52.270;9.746;2022-08-19T12:45:35;99014.47;;;30.83;nan
24588;BME280;12744;52.270;9.746;2022-08-19T12:48:06;99122.69;;;30.86;nan
24588;BME280;12744;52.270;9.746;2022-08-19T12:50:41;99183.19;;;31.42;nan
24588;BME280;12744;52.270;9.746;2022-08-19T12:53:13;99005.59;;;31.43;nan
24588;BME280;12744;52.270;9.746;2022-08-19T12:55:45;98978.72;;;31.65;nan
24588;BME280;12744;52.270;9.746;2022-08-19T12:58:16;98979.78;;;32.04;nan
24588;BME280;12744;52.270;9.746;2022-08-19T13:00:48;98931.09;;;31.81;nan
24588;BME280;12744;52.270;9.746;2022-08-19T13:03:20;98937.22;;;31.60;nan
24588;BME280;12744;52.270;9.746;2022-08-19T13:05:53;98965.31;;;32.50;nan
24588;BME280;12744;52.270;9.746;2022-08-19T13:08:24;98944.09;;;32.65;nan
24588;BME280;12744;52.270;9.746;2022-08-19T13:10:55;98879.97;;;32.10;nan
24588;BME280;12744;52.270;9.746;2022-08-19T13:13:26;98892.66;;;31.82;nan
24588;BME280;12744;52.270;9.746;2022-08-19T13:16:03;98840.53;;;32.17;nan
24588;BME280;12744;52.270;9.746;2022-08-19T13:18:54;98908.59;;;32.17;nan
24588;BME280;12744;52.270;9.746;2022-08-19T13:21:27;98983.78;;;32.35;nan
24588;BME280;12744;52.270;9.746;2022-08-19T13:24:00;98950.91;;;32.52;nan
24588;BME280;12744;52.270;9.746;2022-08-19T13:26:31;98911.25;;;32.37;nan
24588;BME280;12744;52.270;9.746;2022-08-19T13:29:02;98892.94;;;32.32;nan
24588;BME280;12744;52.270;9.746;2022-08-19T13:31:52;98864.56;;;32.59;nan
24588;BME280;12744;52.270;9.746;2022-08-19T13:34:41;98887.13;;;32.68;nan
24588;BME280;12744;52.270;9.746;2022-08-19T13:37:12;98765.03;;;31.36;nan
24588;BME280;12744;52.270;9.746;2022-08-19T13:39:43;99035.34;;;31.89;nan
24588;BME280;12744;52.270;9.746;2022-08-19T13:42:15;98840.88;;;31.74;nan
24588;BME280;12744;52.270;9.746;2022-08-19T13:44:48;98930.72;;;32.28;nan
24588;BME280;12744;52.270;9.746;2022-08-19T13:47:19;98850.66;;;32.68;nan
24588;BME280;12744;52.270;9.746;2022-08-19T13:49:50;98756.69;;;32.22;nan
24588;BME280;12744;52.270;9.746;2022-08-19T13:52:21;98836.84;;;32.61;nan